sensor_id;sensor_type;location;lat;lon;timestamp;pressure;altitude;pressure_sealevel;temperature;humidity
68107;BME280;54892;47.488;19.026;2022-08-03T00:01:32;100076.28;;;22.67;49.95
68107;BME280;54892;47.488;19.026;2022-08-03T00:04:35;100092.19;;;22.60;50.21
68107;BME280;54892;47.488;19.026;2022-08-03T00:07:38;100085.13;;;22.55;50.40
68107;BME280;54892;47.488;19.026;2022-08-03T00:10:41;100081.75;;;22.58;50.56
68107;BME280;54892;47.488;19.026;2022-08-03T00:13:44;100083.12;;;22.52;50.83
68107;BME280;54892;47.488;19.026;2022-08-03T00:16:48;100078.06;;;22.50;50.86
68107;BME280;54892;47.488;19.026;2022-08-03T00:19:51;100086.66;;;22.44;51.09
68107;BME280;54892;47.488;19.026;2022-08-03T00:22:54;100086.88;;;22.39;51.40
68107;BME280;54892;47.488;19.026;2022-08-03T00:25:57;100088.66;;;22.34;51.53
68107;BME280;54892;47.488;19.026;2022-08-03T00:29:00;100084.37;;;22.33;51.79
68107;BME280;54892;47.488;19.026;2022-08-03T00:32:05;100081.78;;;22.25;51.94
68107;BME280;54892;47.488;19.026;2022-08-03T00:35:08;100092.44;;;22.33;51.95
68107;BME280;54892;47.488;19.026;2022-08-03T00:38:15;100092.53;;;22.25;52.12
68107;BME280;54892;47.488;19.026;2022-08-03T00:41:18;100097.00;;;22.20;52.43
68107;BME280;54892;47.488;19.026;2022-08-03T00:44:21;100095.56;;;22.23;52.31
68107;BME280;54892;47.488;19.026;2022-08-03T00:47:25;100094.44;;;22.24;52.58
68107;BME280;54892;47.488;19.026;2022-08-03T00:50:29;100095.56;;;22.23;52.76
68107;BME280;54892;47.488;19.026;2022-08-03T00:53:33;100096.22;;;22.20;52.80
68107;BME280;54892;47.488;19.026;2022-08-03T00:56:36;100098.91;;;22.20;53.06
68107;BME280;54892;47.488;19.026;2022-08-03T00:59:40;100099.00;;;22.11;53.34
68107;BME280;54892;47.488;19.026;2022-08-03T01:02:44;100096.00;;;21.92;54.09
68107;BME280;54892;47.488;19.026;2022-08-03T01:05:49;100107.41;;;21.88;54.24
68107;BME280;54892;47.488;19.026;2022-08-03T01:08:58;100104.22;;;21.95;54.14
68107;BME280;54892;47.488;19.026;2022-08-03T01:12:07;100099.03;;;21.90;54.50
68107;BME280;54892;47.488;19.026;2022-08-03T01:15:14;100097.34;;;21.85;54.91
68107;BME280;54892;47.488;19.026;2022-08-03T01:18:24;100093.19;;;21.88;55.02
68107;BME280;54892;47.488;19.026;2022-08-03T01:21:30;100107.16;;;21.81;55.18
68107;BME280;54892;47.488;19.026;2022-08-03T01:28:36;100109.19;;;21.84;55.29
68107;BME280;54892;47.488;19.026;2022-08-03T01:31:43;100115.34;;;21.85;55.44
68107;BME280;54892;47.488;19.026;2022-08-03T01:34:49;100110.75;;;21.85;55.41
68107;BME280;54892;47.488;19.026;2022-08-03T01:37:56;100107.84;;;21.90;55.32
68107;BME280;54892;47.488;19.026;2022-08-03T01:41:01;100113.19;;;21.78;55.92
68107;BME280;54892;47.488;19.026;2022-08-03T01:44:07;100114.34;;;21.68;56.46
68107;BME280;54892;47.488;19.026;2022-08-03T01:47:13;100111.03;;;21.71;56.31
68107;BME280;54892;47.488;19.026;2022-08-03T01:50:20;100111.69;;;21.59;56.88
68107;BME280;54892;47.488;19.026;2022-08-03T01:53:25;100106.91;;;21.44;57.48
68107;BME280;54892;47.488;19.026;2022-08-03T01:56:29;100106.25;;;21.47;57.39
68107;BME280;54892;47.488;19.026;2022-08-03T01:59:34;100101.41;;;21.40;57.84
68107;BME280;54892;47.488;19.026;2022-08-03T02:02:40;100108.53;;;21.36;57.94
68107;BME280;54892;47.488;19.026;2022-08-03T02:05:45;100100.16;;;21.38;57.99
68107;BME280;54892;47.488;19.026;2022-08-03T02:08:52;100105.34;;;21.43;58.14
68107;BME280;54892;47.488;19.026;2022-08-03T02:11:57;100106.78;;;21.40;58.20
68107;BME280;54892;47.488;19.026;2022-08-03T02:15:03;100105.53;;;21.38;58.30
68107;BME280;54892;47.488;19.026;2022-08-03T02:18:09;100105.59;;;21.29;58.69
68107;BME280;54892;47.488;19.026;2022-08-03T02:21:14;100103.09;;;21.24;58.85
68107;BME280;54892;47.488;19.026;2022-08-03T02:24:18;100101.72;;;21.18;59.14
68107;BME280;54892;47.488;19.026;2022-08-03T02:27:22;100100.78;;;21.13;59.33
68107;BME280;54892;47.488;19.026;2022-08-03T02:30:28;100109.13;;;21.12;59.50
68107;BME280;54892;47.488;19.026;2022-08-03T02:33:35;100104.56;;;21.12;59.72
68107;BME280;54892;47.488;19.026;2022-08-03T02:36:40;100103.97;;;21.07;59.97
68107;BME280;54892;47.488;19.026;2022-08-03T02:39:45;100099.56;;;21.02;60.13
68107;BME280;54892;47.488;19.026;2022-08-03T02:42:50;100103.22;;;20.97;60.60
68107;BME280;54892;47.488;19.026;2022-08-03T02:45:56;100098.81;;;20.93;60.56
68107;BME280;54892;47.488;19.026;2022-08-03T02:49:02;100104.34;;;20.88;61.06
68107;BME280;54892;47.488;19.026;2022-08-03T02:52:08;100106.53;;;20.94;60.85
68107;BME280;54892;47.488;19.026;2022-08-03T02:55:13;100104.34;;;20.88;61.08
68107;BME280;54892;47.488;19.026;2022-08-03T02:58:19;100107.22;;;20.82;61.30
68107;BME280;54892;47.488;19.026;2022-08-03T03:01:24;100104.06;;;20.80;61.43
68107;BME280;54892;47.488;19.026;2022-08-03T03:04:30;100109.59;;;20.84;61.37
68107;BME280;54892;47.488;19.026;2022-08-03T03:07:34;100107.53;;;20.81;61.51
68107;BME280;54892;47.488;19.026;2022-08-03T03:10:38;100104.56;;;20.74;61.95
68107;BME280;54892;47.488;19.026;2022-08-03T03:13:42;100103.28;;;20.80;61.75
68107;BME280;54892;47.488;19.026;2022-08-03T03:16:46;100104.25;;;20.75;62.12
68107;BME280;54892;47.488;19.026;2022-08-03T03:19:51;100104.25;;;20.75;62.19
68107;BME280;54892;47.488;19.026;2022-08-03T03:22:55;100106.13;;;20.83;61.90
68107;BME280;54892;47.488;19.026;2022-08-03T03:25:59;100105.66;;;20.81;62.01
68107;BME280;54892;47.488;19.026;2022-08-03T03:29:02;100110.69;;;20.74;62.44
68107;BME280;54892;47.488;19.026;2022-08-03T03:32:06;100113.72;;;20.64;62.99
68107;BME280;54892;47.488;19.026;2022-08-03T03:35:10;100111.06;;;20.55;63.32
68107;BME280;54892;47.488;19.026;2022-08-03T03:38:15;100106.66;;;20.50;63.79
68107;BME280;54892;47.488;19.026;2022-08-03T03:41:18;100101.13;;;20.56;63.62
68107;BME280;54892;47.488;19.026;2022-08-03T03:44:21;100109.81;;;20.52;63.81
68107;BME280;54892;47.488;19.026;2022-08-03T03:47:28;100111.09;;;20.46;64.19
68107;BME280;54892;47.488;19.026;2022-08-03T03:50:33;100111.22;;;20.50;64.24
68107;BME280;54892;47.488;19.026;2022-08-03T03:53:36;100114.87;;;20.45;64.28
68107;BME280;54892;47.488;19.026;2022-08-03T03:56:38;100113.28;;;20.44;64.57
68107;BME280;54892;47.488;19.026;2022-08-03T03:59:42;100118.34;;;20.46;64.77
68107;BME280;54892;47.488;19.026;2022-08-03T04:02:45;100117.41;;;20.50;64.59
68107;BME280;54892;47.488;19.026;2022-08-03T04:05:49;100122.13;;;20.53;64.60
68107;BME280;54892;47.488;19.026;2022-08-03T04:09:09;100115.31;;;20.56;64.66
68107;BME280;54892;47.488;19.026;2022-08-03T04:12:30;100124.78;;;20.62;64.48
68107;BME280;54892;47.488;19.026;2022-08-03T04:15:33;100118.44;;;20.67;64.44
68107;BME280;54892;47.488;19.026;2022-08-03T04:18:38;100125.06;;;20.78;64.35
68107;BME280;54892;47.488;19.026;2022-08-03T04:21:43;100127.38;;;20.89;64.07
68107;BME280;54892;47.488;19.026;2022-08-03T04:24:49;100134.94;;;20.95;63.97
68107;BME280;54892;47.488;19.026;2022-08-03T04:27:53;100132.41;;;20.99;63.72
68107;BME280;54892;47.488;19.026;2022-08-03T04:30:59;100137.75;;;21.08;63.46
68107;BME280;54892;47.488;19.026;2022-08-03T04:34:03;100134.56;;;21.14;63.47
68107;BME280;54892;47.488;19.026;2022-08-03T04:37:10;100139.88;;;21.23;63.24
68107;BME280;54892;47.488;19.026;2022-08-03T04:40:14;100136.22;;;21.28;63.23
68107;BME280;54892;47.488;19.026;2022-08-03T04:43:17;100141.56;;;21.37;62.92
68107;BME280;54892;47.488;19.026;2022-08-03T04:46:22;100155.19;;;21.53;62.54
68107;BME280;54892;47.488;19.026;2022-08-03T04:49:27;100144.84;;;21.42;63.02
68107;BME280;54892;47.488;19.026;2022-08-03T04:52:32;100151.12;;;21.47;62.93
68107;BME280;54892;47.488;19.026;2022-08-03T04:55:35;100152.59;;;21.65;62.72
68107;BME280;54892;47.488;19.026;2022-08-03T04:58:38;100157.53;;;21.63;62.83
68107;BME280;54892;47.488;19.026;2022-08-03T05:01:42;100171.22;;;21.70;62.68
68107;BME280;54892;47.488;19.026;2022-08-03T05:04:44;100174.91;;;21.87;62.33
68107;BME280;54892;47.488;19.026;2022-08-03T05:07:49;100172.34;;;21.90;62.17
68107;BME280;54892;47.488;19.026;2022-08-03T05:10:52;100167.13;;;21.94;62.06
68107;BME280;54892;47.488;19.026;2022-08-03T05:13:55;100175.56;;;22.05;61.89
68107;BME280;54892;47.488;19.026;2022-08-03T05:16:57;100179.37;;;22.25;61.25
68107;BME280;54892;47.488;19.026;2022-08-03T05:20:00;100180.78;;;22.44;60.69
68107;BME280;54892;47.488;19.026;2022-08-03T05:23:05;100181.00;;;22.39;60.35
68107;BME280;54892;47.488;19.026;2022-08-03T05:26:08;100180.84;;;22.35;60.39
68107;BME280;54892;47.488;19.026;2022-08-03T05:29:12;100186.69;;;22.37;60.43
68107;BME280;54892;47.488;19.026;2022-08-03T05:32:15;100193.97;;;22.36;60.47
68107;BME280;54892;47.488;19.026;2022-08-03T05:35:18;100184.59;;;22.43;60.38
68107;BME280;54892;47.488;19.026;2022-08-03T05:38:23;100192.72;;;22.55;60.23
68107;BME280;54892;47.488;19.026;2022-08-03T05:41:26;100191.00;;;22.72;59.94
68107;BME280;54892;47.488;19.026;2022-08-03T05:44:29;100196.28;;;22.80;59.80
68107;BME280;54892;47.488;19.026;2022-08-03T05:47:32;100199.75;;;22.93;59.35
68107;BME280;54892;47.488;19.026;2022-08-03T05:50:35;100199.75;;;22.93;59.09
68107;BME280;54892;47.488;19.026;2022-08-03T05:53:41;100199.78;;;23.06;59.15
68107;BME280;54892;47.488;19.026;2022-08-03T05:56:44;100203.63;;;23.17;58.75
68107;BME280;54892;47.488;19.026;2022-08-03T05:59:47;100214.97;;;23.23;58.71
68107;BME280;54892;47.488;19.026;2022-08-03T06:02:50;100214.31;;;23.26;58.16
68107;BME280;54892;47.488;19.026;2022-08-03T06:05:53;100211.53;;;23.35;57.97
68107;BME280;54892;47.488;19.026;2022-08-03T06:08:58;100216.00;;;23.43;57.77
68107;BME280;54892;47.488;19.026;2022-08-03T06:12:01;100221.81;;;23.57;57.19
68107;BME280;54892;47.488;19.026;2022-08-03T06:15:04;100218.53;;;23.77;56.72
68107;BME280;54892;47.488;19.026;2022-08-03T06:18:07;100226.19;;;23.87;56.19
68107;BME280;54892;47.488;19.026;2022-08-03T06:21:10;100228.31;;;23.94;55.68
68107;BME280;54892;47.488;19.026;2022-08-03T06:24:14;100230.53;;;23.92;55.15
68107;BME280;54892;47.488;19.026;2022-08-03T06:27:17;100225.81;;;24.01;55.67
68107;BME280;54892;47.488;19.026;2022-08-03T06:30:20;100226.63;;;24.01;54.96
68107;BME280;54892;47.488;19.026;2022-08-03T06:33:23;100230.22;;;24.06;55.24
68107;BME280;54892;47.488;19.026;2022-08-03T06:36:27;100229.88;;;24.07;54.95
68107;BME280;54892;47.488;19.026;2022-08-03T06:39:35;100232.63;;;24.23;55.22
68107;BME280;54892;47.488;19.026;2022-08-03T06:42:38;100233.19;;;24.29;54.83
68107;BME280;54892;47.488;19.026;2022-08-03T06:45:41;100235.44;;;24.27;54.53
68107;BME280;54892;47.488;19.026;2022-08-03T06:48:44;100237.59;;;24.21;54.21
68107;BME280;54892;47.488;19.026;2022-08-03T06:51:48;100250.72;;;24.23;54.26
68107;BME280;54892;47.488;19.026;2022-08-03T06:54:54;100238.38;;;24.22;54.24
68107;BME280;54892;47.488;19.026;2022-08-03T06:57:57;100228.13;;;24.27;54.50
68107;BME280;54892;47.488;19.026;2022-08-03T07:01:00;100240.13;;;24.30;54.30
68107;BME280;54892;47.488;19.026;2022-08-03T07:04:03;100241.03;;;24.34;53.72
68107;BME280;54892;47.488;19.026;2022-08-03T07:07:07;100238.38;;;24.50;53.64
68107;BME280;54892;47.488;19.026;2022-08-03T07:10:11;100246.94;;;24.52;53.17
68107;BME280;54892;47.488;19.026;2022-08-03T07:13:14;100237.53;;;24.62;52.87
68107;BME280;54892;47.488;19.026;2022-08-03T07:16:17;100237.94;;;24.76;52.63
68107;BME280;54892;47.488;19.026;2022-08-03T07:19:19;100231.88;;;25.12;51.50
68107;BME280;54892;47.488;19.026;2022-08-03T07:22:22;100239.38;;;25.86;49.45
68107;BME280;54892;47.488;19.026;2022-08-03T07:25:26;100240.06;;;26.58;47.55
68107;BME280;54892;47.488;19.026;2022-08-03T07:28:29;100234.47;;;27.90;44.70
68107;BME280;54892;47.488;19.026;2022-08-03T07:31:32;100243.38;;;28.93;42.33
68107;BME280;54892;47.488;19.026;2022-08-03T07:34:35;100238.31;;;30.00;39.53
68107;BME280;54892;47.488;19.026;2022-08-03T07:37:39;100238.50;;;30.61;37.81
68107;BME280;54892;47.488;19.026;2022-08-03T07:40:43;100237.34;;;30.88;37.58
68107;BME280;54892;47.488;19.026;2022-08-03T07:43:46;100242.03;;;30.94;36.84
68107;BME280;54892;47.488;19.026;2022-08-03T07:46:49;100236.22;;;30.96;36.68
68107;BME280;54892;47.488;19.026;2022-08-03T07:49:52;100235.75;;;31.55;35.83
68107;BME280;54892;47.488;19.026;2022-08-03T07:52:55;100240.00;;;31.82;35.37
68107;BME280;54892;47.488;19.026;2022-08-03T07:56:01;100239.81;;;32.32;34.64
68107;BME280;54892;47.488;19.026;2022-08-03T07:59:04;100235.31;;;32.68;33.71
68107;BME280;54892;47.488;19.026;2022-08-03T08:02:07;100236.84;;;32.65;33.59
68107;BME280;54892;47.488;19.026;2022-08-03T08:05:17;100242.09;;;32.41;33.75
68107;BME280;54892;47.488;19.026;2022-08-03T08:08:24;100237.06;;;32.32;34.27
68107;BME280;54892;47.488;19.026;2022-08-03T08:11:28;100237.22;;;31.96;34.47
68107;BME280;54892;47.488;19.026;2022-08-03T08:14:31;100228.31;;;31.85;34.93
68107;BME280;54892;47.488;19.026;2022-08-03T08:17:41;100238.84;;;31.83;35.32
68107;BME280;54892;47.488;19.026;2022-08-03T08:20:44;100236.19;;;31.43;35.76
68107;BME280;54892;47.488;19.026;2022-08-03T08:23:47;100231.50;;;31.00;36.20
68107;BME280;54892;47.488;19.026;2022-08-03T08:26:51;100235.78;;;30.72;37.15
68107;BME280;54892;47.488;19.026;2022-08-03T08:29:54;100233.00;;;30.43;37.71
68107;BME280;54892;47.488;19.026;2022-08-03T08:32:59;100230.63;;;30.38;38.07
68107;BME280;54892;47.488;19.026;2022-08-03T08:36:02;100236.03;;;30.13;38.51
68107;BME280;54892;47.488;19.026;2022-08-03T08:39:05;100241.03;;;30.00;38.54
68107;BME280;54892;47.488;19.026;2022-08-03T08:42:11;100233.53;;;29.86;38.39
68107;BME280;54892;47.488;19.026;2022-08-03T08:45:14;100232.94;;;29.47;38.78
68107;BME280;54892;47.488;19.026;2022-08-03T08:48:20;100232.12;;;29.40;38.98
68107;BME280;54892;47.488;19.026;2022-08-03T08:51:26;100229.63;;;29.20;39.05
68107;BME280;54892;47.488;19.026;2022-08-03T08:54:29;100233.78;;;29.07;39.01
68107;BME280;54892;47.488;19.026;2022-08-03T08:57:36;100230.13;;;28.88;39.59
68107;BME280;54892;47.488;19.026;2022-08-03T09:00:43;100230.56;;;28.90;40.09
68107;BME280;54892;47.488;19.026;2022-08-03T09:03:46;100226.56;;;28.77;40.30
68107;BME280;54892;47.488;19.026;2022-08-03T09:06:49;100226.59;;;28.84;40.20
68107;BME280;54892;47.488;19.026;2022-08-03T09:10:05;100224.25;;;28.79;40.28
68107;BME280;54892;47.488;19.026;2022-08-03T09:13:10;100225.84;;;28.83;40.44
68107;BME280;54892;47.488;19.026;2022-08-03T09:16:14;100223.53;;;28.85;40.13
68107;BME280;54892;47.488;19.026;2022-08-03T09:19:17;100214.81;;;28.69;39.98
68107;BME280;54892;47.488;19.026;2022-08-03T09:22:20;100211.03;;;28.77;40.22
68107;BME280;54892;47.488;19.026;2022-08-03T09:25:26;100215.75;;;28.84;40.25
68107;BME280;54892;47.488;19.026;2022-08-03T09:28:33;100213.44;;;28.90;40.20
68107;BME280;54892;47.488;19.026;2022-08-03T09:31:37;100215.91;;;29.02;40.15
68107;BME280;54892;47.488;19.026;2022-08-03T09:34:40;100210.50;;;29.06;40.20
68107;BME280;54892;47.488;19.026;2022-08-03T09:37:44;100210.56;;;29.16;39.15
68107;BME280;54892;47.488;19.026;2022-08-03T09:40:47;100206.59;;;29.03;38.09
68107;BME280;54892;47.488;19.026;2022-08-03T09:43:51;100207.84;;;28.71;38.55
68107;BME280;54892;47.488;19.026;2022-08-03T09:46:57;100213.19;;;29.02;38.28
68107;BME280;54892;47.488;19.026;2022-08-03T09:50:00;100197.97;;;28.94;38.32
68107;BME280;54892;47.488;19.026;2022-08-03T09:53:03;100203.41;;;28.94;38.25
68107;BME280;54892;47.488;19.026;2022-08-03T09:56:06;100200.38;;;29.06;38.59
68107;BME280;54892;47.488;19.026;2022-08-03T09:59:11;100188.50;;;29.25;38.35
68107;BME280;54892;47.488;19.026;2022-08-03T10:02:21;100193.25;;;29.36;38.16
68107;BME280;54892;47.488;19.026;2022-08-03T10:05:30;100184.97;;;29.21;38.56
68107;BME280;54892;47.488;19.026;2022-08-03T10:08:33;100184.34;;;29.39;37.00
68107;BME280;54892;47.488;19.026;2022-08-03T10:11:36;100182.44;;;29.43;37.53
68107;BME280;54892;47.488;19.026;2022-08-03T10:14:43;100183.25;;;29.54;37.84
68107;BME280;54892;47.488;19.026;2022-08-03T10:17:47;100178.19;;;29.49;37.36
68107;BME280;54892;47.488;19.026;2022-08-03T10:20:51;100174.84;;;29.18;37.46
68107;BME280;54892;47.488;19.026;2022-08-03T10:23:55;100169.66;;;28.98;37.41
68107;BME280;54892;47.488;19.026;2022-08-03T10:26:59;100174.00;;;29.07;38.08
68107;BME280;54892;47.488;19.026;2022-08-03T10:30:05;100164.88;;;28.81;38.74
68107;BME280;54892;47.488;19.026;2022-08-03T10:33:12;100176.81;;;28.72;39.16
68107;BME280;54892;47.488;19.026;2022-08-03T10:36:16;100167.75;;;29.02;38.83
68107;BME280;54892;47.488;19.026;2022-08-03T10:39:20;100161.16;;;29.04;38.91
68107;BME280;54892;47.488;19.026;2022-08-03T10:42:23;100164.28;;;29.06;37.63
68107;BME280;54892;47.488;19.026;2022-08-03T10:45:29;100156.06;;;28.95;38.31
68107;BME280;54892;47.488;19.026;2022-08-03T10:48:35;100146.84;;;29.10;37.84
68107;BME280;54892;47.488;19.026;2022-08-03T10:51:38;100141.97;;;29.34;37.54
68107;BME280;54892;47.488;19.026;2022-08-03T10:54:42;100148.69;;;29.55;37.06
68107;BME280;54892;47.488;19.026;2022-08-03T10:58:02;100142.53;;;29.65;36.92
68107;BME280;54892;47.488;19.026;2022-08-03T11:01:10;100133.66;;;29.93;35.40
68107;BME280;54892;47.488;19.026;2022-08-03T11:04:13;100136.06;;;30.02;35.35
68107;BME280;54892;47.488;19.026;2022-08-03T11:07:17;100135.22;;;29.95;34.96
68107;BME280;54892;47.488;19.026;2022-08-03T11:10:28;100137.19;;;29.94;35.41
68107;BME280;54892;47.488;19.026;2022-08-03T11:13:31;100122.75;;;29.83;34.81
68107;BME280;54892;47.488;19.026;2022-08-03T11:16:36;100120.53;;;30.17;33.60
68107;BME280;54892;47.488;19.026;2022-08-03T11:19:42;100114.69;;;30.19;33.72
68107;BME280;54892;47.488;19.026;2022-08-03T11:22:48;100113.12;;;30.21;33.65
68107;BME280;54892;47.488;19.026;2022-08-03T11:29:25;100110.00;;;30.01;33.38
68107;BME280;54892;47.488;19.026;2022-08-03T11:36:00;100110.06;;;30.56;32.31
68107;BME280;54892;47.488;19.026;2022-08-03T11:39:12;100105.78;;;30.44;31.91
68107;BME280;54892;47.488;19.026;2022-08-03T11:45:37;100099.56;;;30.36;31.30
68107;BME280;54892;47.488;19.026;2022-08-03T11:48:40;100098.00;;;30.42;31.54
68107;BME280;54892;47.488;19.026;2022-08-03T11:51:46;100090.59;;;30.39;32.23
68107;BME280;54892;47.488;19.026;2022-08-03T11:54:54;100094.84;;;30.04;33.72
68107;BME280;54892;47.488;19.026;2022-08-03T11:57:58;100100.22;;;29.82;34.22
68107;BME280;54892;47.488;19.026;2022-08-03T12:01:04;100097.84;;;29.77;34.23
68107;BME280;54892;47.488;19.026;2022-08-03T12:04:08;100104.84;;;29.74;34.13
68107;BME280;54892;47.488;19.026;2022-08-03T12:07:13;100088.16;;;29.83;33.73
68107;BME280;54892;47.488;19.026;2022-08-03T12:10:16;100085.09;;;29.96;33.55
68107;BME280;54892;47.488;19.026;2022-08-03T12:13:19;100081.22;;;30.00;33.70
68107;BME280;54892;47.488;19.026;2022-08-03T12:16:23;100086.69;;;30.11;33.53
68107;BME280;54892;47.488;19.026;2022-08-03T12:19:26;100079.69;;;30.25;32.52
68107;BME280;54892;47.488;19.026;2022-08-03T12:22:31;100081.66;;;30.20;32.89
68107;BME280;54892;47.488;19.026;2022-08-03T12:25:35;100078.94;;;30.24;32.47
68107;BME280;54892;47.488;19.026;2022-08-03T12:28:39;100074.66;;;30.41;32.60
68107;BME280;54892;47.488;19.026;2022-08-03T12:31:50;100069.97;;;30.52;31.75
68107;BME280;54892;47.488;19.026;2022-08-03T12:34:53;100071.16;;;30.15;31.22
68107;BME280;54892;47.488;19.026;2022-08-03T12:38:01;100067.97;;;29.84;32.52
68107;BME280;54892;47.488;19.026;2022-08-03T12:41:04;100061.31;;;29.71;32.92
68107;BME280;54892;47.488;19.026;2022-08-03T12:44:09;100067.53;;;29.68;32.92
68107;BME280;54892;47.488;19.026;2022-08-03T12:47:11;100058.56;;;29.63;33.19
68107;BME280;54892;47.488;19.026;2022-08-03T12:50:22;100054.69;;;29.61;33.54
68107;BME280;54892;47.488;19.026;2022-08-03T12:53:28;100052.41;;;29.74;33.38
68107;BME280;54892;47.488;19.026;2022-08-03T12:56:31;100052.38;;;29.67;33.22
68107;BME280;54892;47.488;19.026;2022-08-03T12:59:35;100046.19;;;29.84;33.28
68107;BME280;54892;47.488;19.026;2022-08-03T13:02:38;100046.66;;;30.19;32.13
68107;BME280;54892;47.488;19.026;2022-08-03T13:05:41;100044.72;;;30.19;31.87
68107;BME280;54892;47.488;19.026;2022-08-03T13:08:46;100045.47;;;30.20;32.13
68107;BME280;54892;47.488;19.026;2022-08-03T13:12:03;100042.38;;;30.32;31.72
68107;BME280;54892;47.488;19.026;2022-08-03T13:15:06;100039.63;;;30.21;31.66
68107;BME280;54892;47.488;19.026;2022-08-03T13:18:09;100031.09;;;30.19;31.72
68107;BME280;54892;47.488;19.026;2022-08-03T13:21:12;100030.72;;;30.17;31.57
68107;BME280;54892;47.488;19.026;2022-08-03T13:24:17;100028.00;;;30.17;31.52
68107;BME280;54892;47.488;19.026;2022-08-03T13:27:20;100019.81;;;30.10;31.56
68107;BME280;54892;47.488;19.026;2022-08-03T13:30:26;100018.62;;;30.26;31.63
68107;BME280;54892;47.488;19.026;2022-08-03T13:33:29;100012.78;;;30.52;31.14
68107;BME280;54892;47.488;19.026;2022-08-03T13:36:32;100018.22;;;30.74;30.63
68107;BME280;54892;47.488;19.026;2022-08-03T13:39:44;100017.38;;;30.95;29.65
68107;BME280;54892;47.488;19.026;2022-08-03T13:42:47;100019.34;;;30.95;30.38
68107;BME280;54892;47.488;19.026;2022-08-03T13:45:50;100010.78;;;30.86;29.09
68107;BME280;54892;47.488;19.026;2022-08-03T13:48:55;100013.50;;;30.89;29.32
68107;BME280;54892;47.488;19.026;2022-08-03T13:51:58;100007.72;;;30.73;29.81
68107;BME280;54892;47.488;19.026;2022-08-03T13:55:03;100006.56;;;30.48;29.77
68107;BME280;54892;47.488;19.026;2022-08-03T13:58:07;100001.91;;;30.23;30.26
68107;BME280;54892;47.488;19.026;2022-08-03T14:01:12;99994.91;;;30.08;30.59
68107;BME280;54892;47.488;19.026;2022-08-03T14:04:15;99991.81;;;30.35;29.76
68107;BME280;54892;47.488;19.026;2022-08-03T14:07:18;99985.97;;;30.36;30.01
68107;BME280;54892;47.488;19.026;2022-08-03T14:10:22;99992.59;;;30.43;29.93
68107;BME280;54892;47.488;19.026;2022-08-03T14:13:25;99984.34;;;30.68;29.74
68107;BME280;54892;47.488;19.026;2022-08-03T14:16:28;99987.84;;;30.72;29.95
68107;BME280;54892;47.488;19.026;2022-08-03T14:19:32;99988.59;;;30.87;29.14
68107;BME280;54892;47.488;19.026;2022-08-03T14:22:35;99978.56;;;30.66;28.79
68107;BME280;54892;47.488;19.026;2022-08-03T14:25:39;99975.03;;;30.51;29.50
68107;BME280;54892;47.488;19.026;2022-08-03T14:28:42;99972.34;;;30.62;28.42
68107;BME280;54892;47.488;19.026;2022-08-03T14:31:45;99973.13;;;30.41;29.58
68107;BME280;54892;47.488;19.026;2022-08-03T14:34:48;99973.16;;;30.19;29.83
68107;BME280;54892;47.488;19.026;2022-08-03T14:37:50;99972.38;;;30.04;30.22
68107;BME280;54892;47.488;19.026;2022-08-03T14:40:55;99973.88;;;29.90;30.16
68107;BME280;54892;47.488;19.026;2022-08-03T14:43:57;99977.00;;;29.85;30.35
68107;BME280;54892;47.488;19.026;2022-08-03T14:47:00;99966.88;;;29.75;30.88
68107;BME280;54892;47.488;19.026;2022-08-03T14:50:04;99968.84;;;29.71;30.32
68107;BME280;54892;47.488;19.026;2022-08-03T14:53:07;99963.00;;;29.69;30.60
68107;BME280;54892;47.488;19.026;2022-08-03T14:56:11;99963.78;;;29.66;30.91
68107;BME280;54892;47.488;19.026;2022-08-03T14:59:14;99956.37;;;29.62;30.67
68107;BME280;54892;47.488;19.026;2022-08-03T15:02:17;99956.78;;;29.61;30.72
68107;BME280;54892;47.488;19.026;2022-08-03T15:05:23;99958.72;;;29.60;30.40
68107;BME280;54892;47.488;19.026;2022-08-03T15:08:26;99956.00;;;29.57;30.42
68107;BME280;54892;47.488;19.026;2022-08-03T15:11:31;99957.56;;;29.54;30.59
68107;BME280;54892;47.488;19.026;2022-08-03T15:14:33;99966.09;;;29.63;30.77
68107;BME280;54892;47.488;19.026;2022-08-03T15:17:36;99960.69;;;29.74;30.18
68107;BME280;54892;47.488;19.026;2022-08-03T15:20:39;99954.84;;;29.87;30.38
68107;BME280;54892;47.488;19.026;2022-08-03T15:23:45;99946.72;;;29.98;30.15
68107;BME280;54892;47.488;19.026;2022-08-03T15:26:51;99946.72;;;30.05;29.56
68107;BME280;54892;47.488;19.026;2022-08-03T15:29:55;99943.59;;;30.06;29.61
68107;BME280;54892;47.488;19.026;2022-08-03T15:32:58;99943.59;;;30.14;29.98
68107;BME280;54892;47.488;19.026;2022-08-03T15:36:01;99941.63;;;30.21;29.93
68107;BME280;54892;47.488;19.026;2022-08-03T15:39:04;99940.47;;;30.30;29.99
68107;BME280;54892;47.488;19.026;2022-08-03T15:42:09;99934.22;;;30.36;29.39
68107;BME280;54892;47.488;19.026;2022-08-03T15:45:11;99938.91;;;30.40;29.72
68107;BME280;54892;47.488;19.026;2022-08-03T15:48:14;99942.78;;;30.49;29.15
68107;BME280;54892;47.488;19.026;2022-08-03T15:51:17;99944.69;;;30.52;29.12
68107;BME280;54892;47.488;19.026;2022-08-03T15:54:21;99944.31;;;30.50;29.24
68107;BME280;54892;47.488;19.026;2022-08-03T15:57:25;99934.16;;;30.76;27.31
68107;BME280;54892;47.488;19.026;2022-08-03T16:00:28;99938.44;;;30.70;27.75
68107;BME280;54892;47.488;19.026;2022-08-03T16:03:31;99936.44;;;30.89;26.67
68107;BME280;54892;47.488;19.026;2022-08-03T16:06:35;99934.19;;;30.62;28.09